KART/ART METAR and TAF weather

Enter ICAO airport designator
Station Type Date Time Source
KART METAR 2018/01/16 08:56 UTC NOAA

KART 160856Z AUTO 06004KT 5SM HZ OVC020 M06/M14 A3038 RMK AO2 SLP296 60000 T10611144 53004 TSNO


Station Type Date Time Source
KART Decoded METAR 2018/01/16 08:56 UTC NOAA

WATERTOWN INTERNATIONAL AIRPORT, NY, United States (KART) 43-59N 076-02W 100M
Jan 16, 2018 - 03:56 AM EST / 2018.01.16 0856 UTC
Wind: from the ENE (060 degrees) at 5 MPH (4 KT):0
Visibility: 5 mile(s):0
Sky conditions: overcast
Weather: haze
Temperature: 21.0 F (-6.1 C)
Windchill: 14 F (-10 C):1
Dew Point: 6.1 F (-14.4 C)
Relative Humidity: 51%
Pressure (altimeter): 30.38 in. Hg (1028 hPa)
Pressure tendency: 0.01 inches (0.4 hPa) higher than three hours ago
ob: KART 160856Z AUTO 06004KT 5SM HZ OVC020 M06/M14 A3038 RMK AO2 SLP296 60000 T10611144 53004 TSNO
cycle: 9

Station Type Date Time Source
KART TAF 2018/01/16 09:12 UTC NOAA

TAF
AMD KART 160911Z 1609/1706 11005KT 3SM -SN OVC015
TEMPO 1609/1612 1 1/2SM -SN
FM161700 23005KT P6SM OVC015
FM162100 25004KT P6SM BKN020
FM162200 VRB03KT P6SM BKN025


Example: see airport list